首页
METAR-TAF:

METAR-TAF

机场 :

伊爾庫茨克, 俄罗斯

伊爾庫茨克國際機場

纬度: 52-16N, 经度: 104-19E, 海拔: 513米

当前天气观测

该预报发布于43分钟前的05:00 UTC
风速4节,风向
温度 -11°C
湿度 61%
气压 1015 hPa
能见度10公里或以上
1500米以下无云,无积雨云

METAR: UIII 250500Z 17002MPS CAVOK M11/M17 Q1015 R12/CLRD60 NOSIG RMK QFE719/0959

时间: 13:43 (05:43 UTC)

预报

该预报发布于43分钟前的05:00 UTC
预报有效从25日的 06点(UTC)到 26日的 06点(UTC)
风速12节,风向西转西北
能見度: 3100
多云层高于1100英尺, 积雨云.
小阵雪, 低吹雪
短暂存在
从 25日的 06点(UTC)到 25日的 24点(UTC)
风速25节,风向西北
能見度: 0500
层高于300英尺
大阵雪, 高吹雪

TAF: UIII 250500Z 2506/2606 30006MPS 3100 -SHSN DRSN BKN011CB TEMPO 2506/2524 32013MPS 0500 +SHSN BLSN VV003

超过4000个机场的气象观测和天气预报(METAR&TAF报告)。

可查询的气象台以黄色和红色小点在地图上表示。

将鼠标移到小点上方,可查看气象台名称。

然后点击查看天气观测和预报。

如需切换地图:点击带黑十字的绿色按钮放大地图;点击带横线的绿色按钮缩小地图;或者点击绿色箭头查看邻近地区的地图。


METAR-TAF: